• Join FlightAware (Why Join?)
  • Login
  • US Flag 
01:44AM EST


 

Airport Tracker/Info


-or-


 

Live Flight TrackerFlight Track Log ✈ AWE754 ✈ 17-Jun-2013 ✈ KPHL - LFPG / CDG

Flight Track Log - Related Links

Times and Time Zones

All times are in EDT time to prevent confusion due to time zone crossing. See the AWE754 flight status page for this flight to view local times or setup timezone preferences in your user account.

Time Position Orientation Groundspeed Altitude Reporting Facility
EDT Latitude Longitude Course Direction KTS MPH feet Rate Location/Type
07:37PM 39.8564 -75.3029 258° West 167 192 1,700  Level FlightAware ADS-B
07:37PM 39.8552 -75.3100 258° West 177 204 1,800 900 Climbing FlightAware ADS-B
07:37PM 39.8524 -75.3243 256° West 196 226 2,000 840 Climbing FlightAware ADS-B
07:37PM 39.8485 -75.3432 255° West 222 255 2,200 1,500 Climbing FlightAware ADS-B
07:38PM 39.8442 -75.3641 255° West 231 266 2,800 2,880 Climbing FlightAware ADS-B
07:38PM 39.8399 -75.3841 254° West 230 265 3,700 3,360 Climbing FlightAware ADS-B
07:38PM 39.8355 -75.4041 254° West 229 264 4,500 3,000 Climbing FlightAware ADS-B
07:38PM 39.8340 -75.4133 258° West 229 264 4,800 2,700 Climbing FlightAware ADS-B
07:38PM 39.8340 -75.4191 270° West 229 264 5,000 3,000 Climbing FlightAware ADS-B
07:38PM 39.8348 -75.4247 281° West 228 262 5,200 3,420 Climbing FlightAware ADS-B
07:38PM 39.8360 -75.4287 291° West 228 262 5,400 3,000 Climbing FlightAware ADS-B
07:39PM 39.8383 -75.4337 301° West 229 264 5,600 2,220 Climbing FlightAware ADS-B
07:39PM 39.8405 -75.4370 311° West 232 267 5,700 1,980 Climbing FlightAware ADS-B
07:39PM 39.8458 -75.4424 322° Northwest 237 273 5,900 1,200 Climbing FlightAware ADS-B
07:39PM 39.8496 -75.4451 331° Northwest 246 283 5,900 840 Level FlightAware ADS-B
07:39PM 39.8533 -75.4469 340° North 254 292 6,000 1,680 Climbing FlightAware ADS-B
07:39PM 39.8581 -75.4485 346° North 260 299 6,100 2,100 Climbing FlightAware ADS-B
07:39PM 39.8768 -75.4536 348° North 271 312 6,700 2,880 Climbing FlightAware ADS-B
07:39PM 39.8961 -75.4589 348° North 271 312 7,600 3,480 Climbing FlightAware ADS-B
07:40PM 39.9148 -75.4644 347° North 269 310 8,500 3,240 Climbing FlightAware ADS-B
07:40PM 39.9334 -75.4700 347° North 271 312 9,300 2,700 Climbing FlightAware ADS-B
07:40PM 39.9719 -75.4819 347° North 287 330 10,600 1,740 Climbing FlightAware ADS-B
07:41PM 40.0139 -75.4952 346° North 328 377 11,100 960 Climbing FlightAware ADS-B
07:41PM 40.0619 -75.5101 347° North 367 422 11,600 840 Climbing FlightAware ADS-B
07:42PM 40.1143 -75.5264 347° North 384 442 12,000 960 Climbing FlightAware ADS-B
07:42PM 40.1664 -75.5426 347° North 385 443 12,600 1,380 Climbing FlightAware ADS-B
07:43PM 40.1937 -75.5511 347° North 387 445 13,100 2,400 Climbing FlightAware ADS-B
07:43PM 40.2089 -75.5575 342° North 382 440 13,600 3,000 Climbing FlightAware ADS-B
07:43PM 40.2256 -75.5695 331° Northwest 377 434 14,100 2,580 Climbing FlightAware ADS-B
07:43PM 40.2323 -75.5764 322° Northwest 376 433 14,300 2,760 Climbing FlightAware ADS-B
07:43PM 40.2441 -75.5926 314° West 376 433 14,800 2,700 Climbing FlightAware ADS-B
07:44PM 40.2817 -75.6494 311° West 383 441 16,200 2,040 Climbing FlightAware ADS-B
07:44PM 40.3176 -75.7032 311° West 387 445 17,000 720 Climbing FlightAware ADS-B
07:45PM 40.3578 -75.7637 311° West 388 447 17,000 900 Level FlightAware ADS-B
07:45PM 40.3941 -75.8186 311° West 387 445 18,000 1,980 Climbing FlightAware ADS-B
07:46PM 40.4217 -75.8606 311° West 394 453 18,800 2,220 Climbing FlightAware ADS-B
07:46PM 40.4315 -75.8773 308° West 393 452 19,200 2,820 Climbing FlightAware ADS-B
07:46PM 40.4395 -75.8975 297° West 390 449 19,700 2,520 Climbing FlightAware ADS-B
07:46PM 40.4451 -75.9218 287° West 391 450 20,100 2,040 Climbing FlightAware ADS-B
07:47PM 40.4571 -75.9941 282° West 401 461 21,100 1,980 Climbing FlightAware ADS-B
07:47PM 40.4705 -76.0772 282° West 405 466 22,300 2,220 Climbing FlightAware ADS-B
07:48PM 40.4826 -76.1522 282° West 400 460 23,600 2,340 Climbing FlightAware ADS-B
07:48PM 40.4949 -76.2288 282° West 397 457 24,800 2,460 Climbing FlightAware ADS-B
07:49PM 40.5065 -76.3007 282° West 387 445 26,200 1,980 Climbing FlightAware ADS-B
07:50PM 40.5181 -76.3743 282° West 394 453 26,900 1,500 Climbing FlightAware ADS-B
07:50PM 40.5294 -76.4456 282° West 393 452 27,800 1,680 Climbing FlightAware ADS-B
07:50PM 40.5340 -76.4713 283° West 396 456 28,100 1,620 Climbing FlightAware ADS-B
07:50PM 40.5410 -76.4979 289° West 401 461 28,400 1,500 Climbing FlightAware ADS-B
07:51PM 40.5443 -76.5075 294° West 404 465 28,500 1,320 Climbing FlightAware ADS-B
07:51PM 40.5614 -76.5438 302° West 414 476 28,900 1,200 Climbing FlightAware ADS-B
07:51PM 40.5774 -76.5673 312° West 423 487 29,100 1,320 Climbing FlightAware ADS-B
07:51PM 40.5864 -76.5778 318° Northwest 426 490 29,300 1,200 Climbing FlightAware ADS-B
07:51PM 40.5995 -76.5906 323° Northwest 435 501 29,400 1,080 Climbing FlightAware ADS-B
07:51PM 40.6103 -76.6006 325° Northwest 442 509 29,600 1,080 Climbing FlightAware ADS-B
07:52PM 40.6515 -76.6206 340° North 466 536 29,900 840 Climbing FlightAware ADS-B
07:52PM 40.7268 -76.6381 350° North 480 552 30,400 780 Climbing FlightAware ADS-B
07:53PM 40.7979 -76.6536 351° North 488 562 30,800 840 Climbing FlightAware ADS-B
07:54PM 40.9000 -76.6760 351° North 489 563 31,500 1,020 Climbing FlightAware
07:54PM 40.9399 -76.6851 350° North 490 564 31,900 1,560 Climbing FlightAware ADS-B
07:54PM 40.9779 -76.6929 351° North 490 564 32,400 1,500 Climbing FlightAware ADS-B
07:54PM 41.0102 -76.6937 359° North 499 574 32,700 1,020 Climbing FlightAware ADS-B
07:55PM 41.0404 -76.6892 North 508 585 32,900 480 Climbing FlightAware ADS-B
07:55PM 41.0903 -76.6719 15° North 521 600 33,000 120 Climbing FlightAware ADS-B
07:55PM 41.1229 -76.6529 24° Northeast 533 613 33,000  Level FlightAware ADS-B
07:56PM 41.1761 -76.6042 35° Northeast 552 635 33,000  Level FlightAware ADS-B
07:56PM 41.1880 -76.5893 43° Northeast 556 640 33,000  Level FlightAware ADS-B
07:56PM 41.2528 -76.4974 47° Northeast 560 644 33,000  Level FlightAware ADS-B
07:57PM 41.3099 -76.4157 47° Northeast 561 646 33,000  Level FlightAware ADS-B
07:57PM 41.3698 -76.3297 47° Northeast 557 641 33,000  Level FlightAware ADS-B
07:58PM 41.4225 -76.2538 47° Northeast 555 639 33,000  Level FlightAware ADS-B
07:59PM 41.4795 -76.1717 47° Northeast 558 642 33,000  Level FlightAware ADS-B
07:59PM 41.5323 -76.0954 47° Northeast 561 646 33,000  Level FlightAware ADS-B
08:00PM 41.5931 -76.0071 47° Northeast 557 641 33,000 180 Level FlightAware ADS-B
08:00PM 41.6467 -75.9292 47° Northeast 556 640 33,200 1,620 Climbing FlightAware ADS-B
08:01PM 41.6986 -75.8533 48° Northeast 537 618 34,700 2,400 Climbing FlightAware ADS-B
08:01PM 41.7573 -75.7674 47° Northeast 522 601 35,900 1,680 Climbing FlightAware ADS-B
08:02PM 41.8254 -75.6676 48° Northeast 515 593 36,900 840 Climbing FlightAware ADS-B
08:02PM 41.8797 -75.5880 47° Northeast 525 604 37,000 60 Climbing FlightAware ADS-B
08:03PM 41.9670 -75.4580 48° Northeast 537 618 37,000  Level FlightAware
08:04PM 42.0360 -75.3560 48° Northeast 540 621 37,000  Level FlightAware
08:05PM 42.0960 -75.2460 54° Northeast 550 633 37,000  Level FlightAware
08:05PM 42.1421 -75.1356 61° Northeast 556 640 37,000  Level FlightAware ADS-B
08:06PM 42.1914 -75.0004 64° Northeast 555 639 37,000  Level FlightAware ADS-B
08:07PM 42.2363 -74.8776 64° Northeast 554 638 37,000  Level FlightAware ADS-B
08:07PM 42.2700 -74.7848 64° Northeast 553 636 37,000  Level FlightAware ADS-B
08:08PM 42.3320 -74.6140 64° Northeast 552 635 37,000  Level FlightAware
08:09PM 42.3860 -74.4630 64° Northeast 551 634 37,000  Level FlightAware
08:10PM 42.4290 -74.3420 64° Northeast 553 636 37,000  Level FlightAware
08:10PM 42.4800 -74.2010 64° Northeast 554 638 37,000  Level FlightAware
08:11PM 42.5260 -74.0710 64° Northeast 555 639 37,000  Level FlightAware
08:12PM 42.5660 -73.9570 64° Northeast 555 639 37,000  Level FlightAware
08:12PM 42.6130 -73.8240 64° Northeast 553 636 37,000  Level FlightAware
08:13PM 42.6670 -73.6690 65° Northeast 552 635 37,000  Level FlightAware
08:14PM 42.7170 -73.5230 65° Northeast 553 636 37,000  Level FlightAware
08:15PM 42.7940 -73.3010 65° Northeast 553 636 37,000  Level FlightAware
08:16PM 42.8430 -73.1600 65° Northeast 551 634 37,000  Level FlightAware
08:17PM 42.8860 -73.0340 65° Northeast 554 638 37,000  Level FlightAware
08:17PM 42.9350 -72.8890 65° Northeast 550 633 37,000  Level FlightAware
08:18PM 42.9770 -72.7660 65° Northeast 548 631 37,000  Level FlightAware
08:19PM 43.0230 -72.6310 65° Northeast 549 632 37,000  Level FlightAware
08:19PM 43.0710 -72.4860 66° East 550 633 37,000  Level FlightAware
08:20PM 43.1100 -72.3700 65° Northeast 550 633 37,000  Level FlightAware
08:21PM 43.1570 -72.2280 66° East 550 633 37,000  Level FlightAware
08:21PM 43.1990 -72.1000 66° East 550 633 37,000  Level FlightAware
08:22PM 43.2440 -71.9620 66° East 550 633 37,000  Level FlightAware
08:23PM 43.2890 -71.8240 66° East 548 631 37,000  Level FlightAware
08:24PM 43.3330 -71.6900 66° East 546 628 37,000  Level FlightAware
08:24PM 43.3720 -71.5690 66° East 545 627 37,000  Level FlightAware
08:25PM 43.4170 -71.4310 66° East 541 623 37,000  Level FlightAware
08:26PM 43.4610 -71.2910 67° East 541 623 37,000  Level FlightAware
08:26PM 43.4990 -71.1720 66° East 541 623 37,000  Level FlightAware
08:27PM 43.5450 -71.0280 66° East 541 623 37,000  Level FlightAware
08:28PM 43.5870 -70.8940 67° East 543 625 37,000  Level FlightAware
08:29PM 43.6270 -70.7660 67° East 543 625 37,000  Level FlightAware
08:29PM 43.6680 -70.6350 67° East 543 625 37,000  Level FlightAware
08:30PM 43.7100 -70.4990 67° East 542 624 37,000  Level FlightAware
08:31PM 43.7510 -70.3680 67° East 542 624 37,000  Level FlightAware
08:31PM 43.7920 -70.2340 67° East 542 624 37,000  Level FlightAware
08:32PM 43.8330 -70.0990 67° East 543 625 37,000  Level FlightAware
08:33PM 43.8740 -69.9660 67° East 544 626 37,000  Level FlightAware
08:33PM 43.9170 -69.8230 67° East 546 628 37,000  Level FlightAware
08:34PM 43.9560 -69.6930 67° East 543 625 37,000  Level FlightAware
08:35PM 43.9960 -69.5610 67° East 541 623 37,000  Level FlightAware
08:36PM 44.0380 -69.4180 68° East 541 623 37,000  Level FlightAware
08:36PM 44.0770 -69.2880 67° East 543 625 37,000  Level FlightAware
08:37PM 44.1150 -69.1590 68° East 546 628 37,000  Level FlightAware
08:38PM 44.1570 -69.0150 68° East 548 631 37,000  Level FlightAware
08:38PM 44.1950 -68.8850 68° East 548 631 37,000  Level FlightAware
08:39PM 44.2330 -68.7540 68° East 549 632 37,000  Level FlightAware
08:40PM 44.2720 -68.6180 68° East 549 632 37,000  Level FlightAware
08:41PM 44.3300 -68.4160 68° East 549 632 37,000  Level FlightAware
08:41PM 44.3660 -68.2920 68° East 551 634 37,000  Level FlightAware
08:42PM 44.4090 -68.1400 68° East 552 635 37,000  Level FlightAware
08:43PM 44.4470 -68.0040 69° East 552 635 37,000  Level FlightAware
08:44PM 44.4890 -67.8540 69° East 552 635 37,000  Level FlightAware
08:44PM 44.5270 -67.7180 69° East 553 636 37,000  Level FlightAware
08:45PM 44.5640 -67.5820 69° East 553 636 37,000  Level FlightAware
08:46PM 44.6010 -67.4480 69° East 552 635 37,000  Level FlightAware
08:46PM 44.6400 -67.3060 69° East 551 634 37,000  Level FlightAware
08:47PM 44.6780 -67.1650 69° East 551 634 37,000  Level FlightAware
08:48PM 44.7180 -67.0200 69° East 552 635 37,000  Level FlightAware
08:48PM 44.7560 -66.8790 69° East 553 636 37,000  Level FlightAware
08:49PM 44.7920 -66.7430 70° East 554 638 37,000  Level FlightAware
08:50PM 44.8100 -66.6740 70° East 554 638 37,000  Level FlightAware
08:50PM 44.8650 -66.4660 69° East 553 636 37,000  Level FlightAware
08:51PM 44.9040 -66.3170 70° East 552 635 37,000  Level FlightAware
08:52PM 44.9540 -66.1280 69° East 551 634 37,000  Level FlightAware
08:53PM 44.9900 -65.9860 70° East 551 634 37,000  Level FlightAware
08:54PM 45.0290 -65.8370 70° East 551 634 37,000  Level FlightAware
08:54PM 45.0650 -65.6960 70° East 552 635 37,000  Level FlightAware
08:55PM 45.1100 -65.5190 70° East 553 636 37,000  Level FlightAware
08:56PM 45.1480 -65.3680 70° East 551 634 37,000  Level FlightAware
08:57PM 45.1830 -65.2290 70° East 549 632 37,000  Level FlightAware
08:57PM 45.2200 -65.0790 71° East 544 626 37,000  Level FlightAware
08:58PM 45.2530 -64.9450 71° East 545 627 37,000  Level FlightAware
08:59PM 45.2880 -64.8050 70° East 546 628 37,000  Level FlightAware
08:59PM 45.3240 -64.6540 71° East 548 631 37,000  Level FlightAware
09:00PM 45.3570 -64.5200 71° East 549 632 37,000  Level FlightAware
09:01PM 45.3940 -64.3670 71° East 550 633 37,000  Level FlightAware
09:01PM 45.4250 -64.2380 71° East 552 635 37,000  Level FlightAware
09:02PM 45.4610 -64.0870 71° East 553 636 37,000  Level FlightAware
09:03PM 45.5040 -63.9060 71° East 553 636 37,000  Level FlightAware
09:04PM 45.5300 -63.8000 71° East 553 636 37,000  Level FlightAware
09:04PM 45.5630 -63.6620 71° East 553 636 37,000  Level FlightAware
09:05PM 45.5910 -63.5440 71° East 553 636 37,000  Level FlightAware
09:06PM 45.6690 -63.1910 72° East 37,000  Level FlightAware
09:08PM 45.7270 -62.9370 72° East 560 644 37,000  Level FlightAware
09:08PM 45.7510 -62.8290 72° East 560 644 37,000  Level FlightAware
09:09PM 45.7840 -62.6850 72° East 560 644 37,000  Level FlightAware
09:10PM 45.8090 -62.5740 72° East 560 644 37,000  Level FlightAware
09:10PM 45.8340 -62.4630 72° East 560 644 37,000  Level FlightAware
09:11PM 45.8680 -62.3120 72° East 560 644 37,000  Level FlightAware
09:12PM 45.8930 -62.2040 72° East 560 644 37,000  Level FlightAware
09:13PM 45.9270 -62.0540 72° East 560 644 37,000 1,080 Level FlightAware
09:14PM 45.9970 -61.7020 74° East 547 629 39,000 1,200 Climbing FlightAware
09:14PM 46.0290 -61.5480 73° East 546 628 39,000  Level FlightAware
09:15PM 46.0600 -61.4030 73° East 546 628 39,000  Level FlightAware
09:16PM 46.0910 -61.2540 73° East 547 629 39,000  Level FlightAware
09:16PM 46.1230 -61.1000 73° East 547 629 39,000  Level FlightAware
09:17PM 46.1520 -60.9590 73° East 547 629 39,000  Level FlightAware
09:18PM 46.1820 -60.8080 74° East 548 631 39,000  Level FlightAware
09:18PM 46.2110 -60.6670 73° East 548 631 39,000  Level FlightAware
09:19PM 46.2390 -60.5280 74° East 548 631 39,000  Level FlightAware
09:20PM 46.2700 -60.3720 74° East 549 632 39,000  Level FlightAware
09:21PM 46.2980 -60.2310 74° East 550 633 39,000  Level FlightAware
09:21PM 46.3250 -60.0910 74° East 549 632 39,000  Level FlightAware
09:22PM 46.3560 -59.9330 74° East 551 634 39,000  Level FlightAware
09:23PM 46.3830 -59.7950 74° East 552 635 39,000  Level FlightAware
09:23PM 46.4130 -59.6400 74° East 551 634 39,000  Level FlightAware
09:24PM 46.4430 -59.4810 75° East 549 632 39,000  Level FlightAware
09:25PM 46.4700 -59.3380 75° East 549 632 39,000  Level FlightAware
09:25PM 46.4980 -59.1890 75° East 547 629 39,000  Level FlightAware
09:26PM 46.5250 -59.0420 75° East 547 629 39,000  Level FlightAware
09:27PM 46.5550 -58.8780 75° East 547 629 39,000  Level FlightAware
09:28PM 46.5830 -58.7300 75° East 547 629 39,000  Level FlightAware
09:28PM 46.6080 -58.5890 75° East 548 631 39,000  Level FlightAware
09:29PM 46.6370 -58.4310 75° East 549 632 39,000  Level FlightAware
09:30PM 46.6590 -58.3060 76° East 549 632 39,000  Level FlightAware
09:30PM 46.6860 -58.1540 75° East 549 632 39,000  Level FlightAware
09:31PM 46.7160 -57.9820 76° East 548 631 39,000  Level FlightAware
09:32PM 46.7410 -57.8400 76° East 548 631 39,000  Level FlightAware
09:32PM 46.7660 -57.6910 76° East 549 632 39,000  Level FlightAware
09:33PM 46.7880 -57.5650 76° East 550 633 39,000  Level FlightAware
09:34PM 46.8170 -57.3930 76° East 552 635 39,000  Level FlightAware
09:35PM 46.8420 -57.2460 76° East 552 635 39,000 240 Level FlightAware
09:35PM 46.8790 -57.0500 74° East 553 636 39,400 540 Climbing FlightAware
09:36PM 46.9080 -56.8990 74° East 545 627 39,900 420 Climbing FlightAware
09:37PM 46.9340 -56.7680 74° East 549 632 40,000 60 Climbing FlightAware
09:38PM 46.9660 -56.5970 75° East 548 631 40,000  Level FlightAware
09:38PM 46.9920 -56.4570 75° East 547 629 40,000  Level FlightAware
09:39PM 47.0180 -56.3200 74° East 547 629 40,000  Level FlightAware
09:40PM 47.0570 -56.1060 75° East 545 627 40,000  Level FlightAware
09:41PM 47.0850 -55.9580 74° East 545 627 40,000  Level FlightAware
09:41PM 47.1100 -55.8160 75° East 545 627 40,000  Level FlightAware
09:42PM 47.1400 -55.6520 75° East 545 627 40,000  Level FlightAware
09:43PM 47.1660 -55.5080 75° East 544 626 40,000  Level FlightAware
09:43PM 47.1940 -55.3470 76° East 544 626 40,000  Level FlightAware
09:44PM 47.2190 -55.2040 76° East 544 626 40,000  Level FlightAware
09:45PM 47.2460 -55.0490 76° East 544 626 40,000  Level FlightAware
09:45PM 47.2720 -54.9020 75° East 543 625 40,000  Level FlightAware
09:46PM 47.2990 -54.7420 76° East 543 625 40,000  Level FlightAware
09:47PM 47.3230 -54.6050 75° East 543 625 40,000  Level FlightAware
09:48PM 47.3480 -54.4540 76° East 541 623 40,000  Level FlightAware
09:48PM 47.3750 -54.2930 76° East 541 623 40,000  Level FlightAware
09:49PM 47.4010 -54.1330 76° East 542 624 40,000  Level FlightAware
09:50PM 47.4220 -54.0060 76° East 544 626 40,000  Level FlightAware
09:50PM 47.4490 -53.8430 76° East 546 628 40,000  Level FlightAware
09:51PM 47.4710 -53.7080 76° East 548 631 40,000  Level FlightAware
09:52PM 47.4990 -53.5320 77° East 549 632 40,000  Level FlightAware
09:52PM 47.5190 -53.4060 77° East 549 632 40,000  Level FlightAware
09:53PM 47.5440 -53.2440 77° East 550 633 40,000  Level FlightAware
09:54PM 47.5700 -53.0760 77° East 552 635 40,000  Level FlightAware
09:55PM 47.5950 -52.9120 77° East 552 635 40,000  Level FlightAware
09:55PM 47.6150 -52.7830 77° East 552 635 40,000  Level FlightAware
09:56PM 47.6400 -52.6160 77° East 553 636 40,000  Level FlightAware
09:57PM 47.6620 -52.4710 77° East 553 636 40,000  Level FlightAware
09:57PM 47.6860 -52.3070 78° East 553 636 40,000  Level FlightAware
09:58PM 47.7110 -52.1370 78° East 552 635 40,000  Level FlightAware
09:59PM 47.7320 -51.9920 78° East 550 633 40,000  Level FlightAware
10:00PM 47.7540 -51.8350 78° East 548 631 40,000  Level FlightAware
10:00PM 47.7760 -51.6820 78° East 546 628 40,000  Level FlightAware
10:01PM 47.7950 -51.5480 78° East 546 628 40,000  Level FlightAware
10:02PM 47.8110 -51.4350 78° East 546 628 40,000  Level FlightAware
10:02PM 47.8400 -51.2250 78° East 547 629 40,000  Level FlightAware
10:03PM 47.8620 -51.0590 79° East 547 629 40,000  Level FlightAware
10:04PM 47.8800 -50.9280 78° East 547 629 40,000  Level FlightAware
10:05PM 47.9080 -50.7360 78° East 547 629 40,000  Level FlightAware
10:05PM 47.9230 -50.6290 78° East 547 629 40,000  Level FlightAware
10:06PM 47.9440 -50.4790 78° East 547 629 40,000  Level FlightAware
10:07PM 47.9600 -50.3720 77° East 547 629 40,000  Level FlightAware
10:07PM 47.9820 -50.2150 78° East 547 629 40,000  Level FlightAware
10:08PM 47.9980 -50.1020 78° East 547 629 40,000  Level FlightAware
10:09PM 48.0190 -49.9540 78° East 547 629 40,000  Level FlightAware
10:09PM 48.0350 -49.8400 78° East 547 629 40,000  Level FlightAware
10:10PM 48.0580 -49.6800 78° East 547 629 40,000  Level FlightAware
10:11PM 48.0820 -49.5070 78° East 547 629 40,000  Level FlightAware
10:12PM 48.0990 -49.3870 78° East 547 629 40,000  Level FlightAware
10:12PM 48.1160 -49.2700 78° East 547 629 40,000  Level FlightAware
10:13PM 48.2667 -48.7667 78° East 550 633 40,000  Level Gander Center
10:14PM 48.3333 -48.5500 65° Northeast 550 633 40,000  Level Gander Center
10:15PM 48.3667 -48.3333 77° East 550 633 40,000  Level Gander Center
10:16PM 48.4167 -48.1167 71° East 550 633 40,000  Level Gander Center
10:17PM 48.4500 -47.9000 77° East 550 633 40,000  Level Gander Center
10:18PM 48.5000 -47.6667 72° East 550 633 40,000  Level Gander Center
10:19PM 48.5500 -47.4667 69° East 550 633 40,000  Level Gander Center
10:20PM 48.6000 -47.2500 71° East 550 633 40,000  Level Gander Center
10:21PM 48.6500 -47.0167 72° East 550 633 40,000  Level Gander Center
10:23PM 48.7333 -46.6333 72° East 550 633 40,000  Level Gander Center
10:25PM 48.7923 -46.3913 70° East  Level FlightAware Approximate
10:32PM 49.1232 -44.9661 73° East  Level FlightAware Approximate
10:33PM 49.1638 -44.7585 73° East  Level FlightAware Approximate
10:34PM 49.2041 -44.5506 73° East  Level FlightAware Approximate
10:35PM 49.2440 -44.3423 74° East  Level FlightAware Approximate
10:36PM 49.2836 -44.1337 74° East  Level FlightAware Approximate
10:37PM 49.3227 -43.9248 74° East  Level FlightAware Approximate
10:38PM 49.3615 -43.7155 74° East  Level FlightAware Approximate
10:39PM 49.3999 -43.5059 74° East  Level FlightAware Approximate
10:40PM 49.4379 -43.2960 74° East  Level FlightAware Approximate
10:41PM 49.4756 -43.0858 75° East  Level FlightAware Approximate
10:42PM 49.5129 -42.8752 75° East  Level FlightAware Approximate
10:43PM 49.5497 -42.6643 75° East  Level FlightAware Approximate
10:44PM 49.5871 -42.4535 74° East  Level FlightAware Approximate
10:45PM 49.6249 -42.2427 74° East  Level FlightAware Approximate
10:46PM 49.6623 -42.0316 75° East  Level FlightAware Approximate
10:47PM 49.6994 -41.8201 75° East  Level FlightAware Approximate
10:48PM 49.7360 -41.6083 75° East  Level FlightAware Approximate
10:49PM 49.7723 -41.3962 75° East  Level FlightAware Approximate
10:50PM 49.8081 -41.1838 75° East  Level FlightAware Approximate
10:51PM 49.8436 -40.9710 75° East  Level FlightAware Approximate
10:52PM 49.8787 -40.7580 76° East  Level FlightAware Approximate
10:53PM 49.9134 -40.5446 76° East  Level FlightAware Approximate
10:54PM 49.9477 -40.3310 76° East  Level FlightAware Approximate
10:55PM 49.9844 -40.0996 76° East  Level FlightAware Approximate
10:56PM 50.0189 -39.8673 77° East  Level FlightAware Approximate
10:57PM 50.0518 -39.6342 78° East  Level FlightAware Approximate
10:58PM 50.0842 -39.4008 78° East  Level FlightAware Approximate
10:59PM 50.1161 -39.1671 78° East  Level FlightAware Approximate
11:00PM 50.1476 -38.9331 78° East  Level FlightAware Approximate
11:01PM 50.1786 -38.6988 78° East  Level FlightAware Approximate
11:02PM 50.2091 -38.4641 78° East  Level FlightAware Approximate
11:03PM 50.2392 -38.2292 79° East  Level FlightAware Approximate
11:04PM 50.2687 -37.9940 79° East  Level FlightAware Approximate
11:05PM 50.2978 -37.7585 79° East  Level FlightAware Approximate
11:06PM 50.3264 -37.5227 79° East  Level FlightAware Approximate
11:07PM 50.3546 -37.2866 79° East  Level FlightAware Approximate
11:08PM 50.3822 -37.0503 80° East  Level FlightAware Approximate
11:09PM 50.4094 -36.8136 80° East  Level FlightAware Approximate
11:10PM 50.4361 -36.5767 80° East  Level FlightAware Approximate
11:11PM 50.4623 -36.3396 80° East  Level FlightAware Approximate
11:12PM 50.4884 -36.1022 80° East  Level FlightAware Approximate
11:13PM 50.5140 -35.8647 80° East  Level FlightAware Approximate
11:14PM 50.5391 -35.6268 80° East  Level FlightAware Approximate
11:15PM 50.5638 -35.3887 81° East  Level FlightAware Approximate
11:16PM 50.5879 -35.1504 81° East  Level FlightAware Approximate
11:17PM 50.6116 -34.9118 81° East  Level FlightAware Approximate
11:18PM 50.6348 -34.6730 81° East  Level FlightAware Approximate
11:19PM 50.6575 -34.4339 81° East  Level FlightAware Approximate
11:20PM 50.6797 -34.1947 82° East  Level FlightAware Approximate
11:21PM 50.7014 -33.9552 82° East  Level FlightAware Approximate
11:22PM 50.7229 -33.7155 82° East  Level FlightAware Approximate
11:23PM 50.7444 -33.4757 82° East  Level FlightAware Approximate
11:24PM 50.7655 -33.2357 82° East  Level FlightAware Approximate
11:25PM 50.7861 -32.9955 82° East  Level FlightAware Approximate
11:26PM 50.8061 -32.7551 82° East  Level FlightAware Approximate
11:27PM 50.8257 -32.5145 83° East  Level FlightAware Approximate
11:28PM 50.8448 -32.2737 83° East  Level FlightAware Approximate
11:29PM 50.8634 -32.0327 83° East  Level FlightAware Approximate
11:30PM 50.8815 -31.7915 83° East  Level FlightAware Approximate
11:31PM 50.8991 -31.5502 83° East  Level FlightAware Approximate
11:32PM 50.9162 -31.3086 84° East  Level FlightAware Approximate
11:33PM 50.9328 -31.0669 84° East  Level FlightAware Approximate
11:34PM 50.9489 -30.8250 84° East  Level FlightAware Approximate
11:35PM 50.9645 -30.5829 84° East  Level FlightAware Approximate
11:36PM 50.9796 -30.3407 84° East  Level FlightAware Approximate
11:37PM 50.9942 -30.0983 84° East  Level FlightAware Approximate
11:38PM 51.0201 -29.8587 77° East  Level FlightAware Approximate
11:39PM 51.0536 -29.6209 77° East  Level FlightAware Approximate
11:40PM 51.0867 -29.3827 77° East  Level FlightAware Approximate
11:41PM 51.1192 -29.1441 78° East  Level FlightAware Approximate
11:42PM 51.1512 -28.9053 78° East  Level FlightAware Approximate
11:43PM 51.1828 -28.6661 78° East  Level FlightAware Approximate
11:44PM 51.2139 -28.4265 78° East  Level FlightAware Approximate
11:45PM 51.2445 -28.1867 78° East  Level FlightAware Approximate
11:46PM 51.2746 -27.9465 79° East  Level FlightAware Approximate
11:47PM 51.3041 -27.7061 79° East  Level FlightAware Approximate
11:48PM 51.3333 -27.4653 79° East  Level FlightAware Approximate
11:49PM 51.3619 -27.2242 79° East  Level FlightAware Approximate
11:50PM 51.3900 -26.9828 79° East  Level FlightAware Approximate
11:51PM 51.4176 -26.7411 80° East  Level FlightAware Approximate
11:52PM 51.4447 -26.4992 80° East  Level FlightAware Approximate
11:53PM 51.4715 -26.2570 80° East  Level FlightAware Approximate
11:54PM 51.4983 -26.0146 80° East  Level FlightAware Approximate
11:55PM 51.5247 -25.7720 80° East  Level FlightAware Approximate
11:56PM 51.5505 -25.5291 80° East  Level FlightAware Approximate
11:57PM 51.5759 -25.2860 80° East  Level FlightAware Approximate
11:58PM 51.6008 -25.0425 81° East  Level FlightAware Approximate
11:59PM 51.6252 -24.7988 81° East  Level FlightAware Approximate
12:00AM 51.6492 -24.5549 81° East  Level FlightAware Approximate
12:01AM 51.6726 -24.3107 81° East  Level FlightAware Approximate
12:02AM 51.6955 -24.0663 81° East  Level FlightAware Approximate
12:03AM 51.7179 -23.8216 81° East  Level FlightAware Approximate
12:04AM 51.7398 -23.5767 82° East  Level FlightAware Approximate
12:05AM 51.7612 -23.3315 82° East  Level FlightAware Approximate
12:06AM 51.7821 -23.0861 82° East  Level FlightAware Approximate
12:07AM 51.8025 -22.8405 82° East  Level FlightAware Approximate
12:08AM 51.8224 -22.5947 82° East  Level FlightAware Approximate
12:09AM 51.8418 -22.3487 83° East  Level FlightAware Approximate
12:10AM 51.8606 -22.1024 83° East  Level FlightAware Approximate
12:11AM 51.8789 -21.8559 83° East  Level FlightAware Approximate
12:12AM 51.8967 -21.6093 83° East  Level FlightAware Approximate
12:13AM 51.9140 -21.3624 83° East  Level FlightAware Approximate
12:14AM 51.9308 -21.1154 84° East  Level FlightAware Approximate
12:15AM 51.9471 -20.8682 84° East  Level FlightAware Approximate
12:16AM 51.9628 -20.6208 84° East  Level FlightAware Approximate
12:17AM 51.9781 -20.3732 84° East  Level FlightAware Approximate
12:18AM 51.9927 -20.1255 84° East  Level FlightAware Approximate
12:19AM 51.9821 -19.8806 104° East  Level FlightAware Approximate
12:20AM 51.9456 -19.6390 104° East  Level FlightAware Approximate
12:21AM 51.9085 -19.3979 104° East  Level FlightAware Approximate
12:22AM 51.8709 -19.1571 104° East  Level FlightAware Approximate
12:23AM 51.8329 -18.9167 104° East  Level FlightAware Approximate
12:24AM 51.7944 -18.6767 104° East  Level FlightAware Approximate
12:25AM 51.7554 -18.4372 105° East  Level FlightAware Approximate
12:27AM 51.6631 -17.8838 105° East  Level FlightAware Approximate
12:29AM 51.5944 -17.4832 105° East  Level FlightAware Approximate
12:30AM 51.5530 -17.2457 106° East  Level FlightAware Approximate
12:31AM 51.5111 -17.0087 106° East  Level FlightAware Approximate
12:32AM 51.4687 -16.7722 106° East  Level FlightAware Approximate
12:33AM 51.4258 -16.5360 106° East  Level FlightAware Approximate
12:34AM 51.3825 -16.3004 106° East  Level FlightAware Approximate
12:35AM 51.3387 -16.0651 107° East  Level FlightAware Approximate
12:36AM 51.2944 -15.8303 107° East  Level FlightAware Approximate
12:37AM 51.2497 -15.5960 107° East  Level FlightAware Approximate
12:38AM 51.2044 -15.3622 107° East  Level FlightAware Approximate
12:39AM 51.1588 -15.1288 107° East  Level FlightAware Approximate
12:40AM 51.1138 -14.8953 107° East  Level FlightAware Approximate
12:41AM 51.0698 -14.6615 107° East  Level FlightAware Approximate
12:42AM 51.0288 -14.4462 107° East  Level FlightAware Approximate
12:43AM 50.9859 -14.2321 108° East  Level FlightAware Approximate
12:44AM 50.9422 -14.0186 108° East  Level FlightAware Approximate
12:45AM 50.8980 -13.8055 108° East  Level FlightAware Approximate
12:46AM 50.8535 -13.5928 108° East  Level FlightAware Approximate
12:47AM 50.8086 -13.3806 108° East  Level FlightAware Approximate
12:48AM 50.7634 -13.1693 109° East  Level FlightAware Approximate
12:49AM 50.7178 -12.9583 109° East  Level FlightAware Approximate
12:50AM 50.6718 -12.7478 109° East  Level FlightAware Approximate
12:51AM 50.6255 -12.5377 109° East  Level FlightAware Approximate
12:52AM 50.5788 -12.3281 109° East  Level FlightAware Approximate
12:53AM 50.5316 -12.1189 110° East  Level FlightAware Approximate
12:54AM 50.4838 -11.9102 110° East  Level FlightAware Approximate
12:55AM 50.4357 -11.7019 110° East  Level FlightAware Approximate
12:56AM 50.3872 -11.4941 110° East  Level FlightAware Approximate
12:57AM 50.3383 -11.2867 110° East  Level FlightAware Approximate
12:58AM 50.2891 -11.0797 110° East  Level FlightAware Approximate
12:58AM 50.6980 -11.1160 111° Southeast 485 558 40,000  Level FlightAware
12:58AM 50.6580 -11.0030 119° Southeast 485 558 40,000  Level FlightAware
12:59AM 50.2395 -10.8731 111° Southeast  Level FlightAware Approximate
12:59AM 50.6050 -10.8610 120° Southeast 495 570 40,000  Level FlightAware
01:00AM 50.5640 -10.7480 120° Southeast 505 581 40,000  Level FlightAware
01:01AM 50.5040 -10.5860 120° Southeast 506 582 40,000  Level FlightAware
01:01AM 50.4670 -10.4850 120° Southeast 504 580 40,000  Level FlightAware
01:02AM 50.4190 -10.3550 120° Southeast 504 580 40,000  Level FlightAware
01:03AM 50.3590 -10.1940 120° Southeast 497 572 40,000  Level FlightAware
01:04AM 50.2930 -10.0210 121° Southeast 487 560 40,000  Level FlightAware
01:04AM 50.2360 -9.8700 121° Southeast 483 556 40,000  Level FlightAware
01:05AM 50.1980 -9.7670 120° Southeast 482 555 40,000  Level FlightAware
01:06AM 50.1400 -9.6170 121° Southeast 481 554 40,000  Level FlightAware
01:07AM 50.0890 -9.4850 121° Southeast 480 552 40,000  Level FlightAware
01:07AM 50.0420 -9.3640 121° Southeast 480 552 40,000  Level FlightAware
01:08AM 49.9920 -9.2350 121° Southeast 483 556 40,000  Level FlightAware
01:09AM 49.9450 -9.1150 121° Southeast 484 557 40,000  Level FlightAware
01:09AM 49.9060 -9.0140 121° Southeast 483 556 40,000  Level FlightAware
01:09AM 49.8943 -8.9870 121° Southeast 474 545 40,000  Level FlightAware UK
01:10AM 49.8596 -8.8986 121° Southeast 474 545 40,000  Level FlightAware UK
01:10AM 49.8500 -8.8730 121° Southeast 484 557 40,000  Level FlightAware
01:10AM 49.8200 -8.7970 121° Southeast 483 556 40,000  Level FlightAware
01:11AM 49.7710 -8.6740 122° Southeast 482 555 40,000  Level FlightAware
01:12AM 49.7197 -8.5457 122° Southeast 480 552 40,000  Level FlightAware UK
01:12AM 49.7170 -8.5350 122° Southeast 485 558 40,000  Level FlightAware
01:13AM 49.6610 -8.3980 122° Southeast 481 554 40,000  Level FlightAware
01:13AM 49.6137 -8.2816 122° Southeast 478 550 40,000  Level FlightAware UK
01:13AM 49.6050 -8.2580 122° Southeast 481 554 40,000  Level FlightAware
01:14AM 49.5580 -8.1400 122° Southeast 478 550 40,000  Level FlightAware
01:15AM 49.5196 -8.0135 122° Southeast 478 550 40,000  Level FlightAware UK
01:15AM 49.5190 -8.0070 122° Southeast 474 545 40,000  Level FlightAware
01:16AM 49.5000 -7.8760 103° East 470 541 40,000  Level FlightAware
01:16AM 49.4950 -7.7410 93° East 470 541 40,000  Level FlightAware
01:17AM 49.4909 -7.6167 93° East 480 552 40,000  Level FlightAware UK
01:17AM 49.4910 -7.5890 93° East 474 545 40,000  Level FlightAware
01:18AM 49.4870 -7.4500 92° East 475 547 40,000  Level FlightAware
01:18AM 49.4834 -7.3141 92° East 488 562 40,000  Level FlightAware UK
01:18AM 49.4840 -7.3170 92° East 475 547 40,000  Level FlightAware
01:19AM 49.4808 -7.2123 92° East 486 559 40,000  Level FlightAware UK
01:19AM 49.4790 -7.1640 92° East 467 537 40,000  Level FlightAware
01:20AM 49.4760 -7.0300 92° East 466 536 40,000  Level FlightAware
01:20AM 49.4711 -6.8941 92° East 482 555 40,000  Level FlightAware UK
01:20AM 49.4710 -6.8910 92° East 467 537 40,000  Level FlightAware
01:21AM 49.4670 -6.7580 93° East 467 537 40,000  Level FlightAware
01:22AM 49.4630 -6.6120 92° East 469 540 40,000  Level FlightAware
01:22AM 49.4586 -6.4977 92° East 482 555 40,000  Level FlightAware UK
01:23AM 49.4580 -6.4680 92° East 473 544 40,000  Level FlightAware
01:23AM 49.4530 -6.3320 93° East 475 547 40,000  Level FlightAware
01:24AM 49.4480 -6.1952 93° East 486 559 40,000  Level FlightAware UK
01:24AM 49.4480 -6.1920 93° East 475 547 40,000  Level FlightAware
01:25AM 49.4430 -6.0470 93° East 470 541 40,000  Level FlightAware
01:25AM 49.4370 -5.9120 94° East 466 536 40,000  Level FlightAware
01:26AM 49.4320 -5.7860 93° East 462 532 40,000  Level FlightAware
01:27AM 49.4270 -5.6440 93° East 458 527 40,000  Level FlightAware
01:27AM 49.4224 -5.5427 93° East 478 550 40,000  Level FlightAware UK
01:28AM 49.4200 -5.4940 93° East 457 526 40,000  Level FlightAware
01:28AM 49.4150 -5.3770 94° East 458 527 40,000  Level FlightAware
01:29AM 49.4099 -5.2507 94° East 484 557 40,000  Level FlightAware UK
01:29AM 49.4090 -5.2340 94° East 460 529 40,000  Level FlightAware
01:30AM 49.4030 -5.1050 94° East 459 528 40,000  Level FlightAware
01:30AM 49.3960 -4.9640 94° East 458 527 40,000  Level FlightAware
01:30AM 49.3964 -4.9589 94° East 480 552 40,000  Level FlightAware UK
01:31AM 49.3919 -4.8619 94° East 476 548 40,000  Level FlightAware UK
01:31AM 49.3900 -4.8290 94° East 459 528 40,000  Level FlightAware
01:32AM 49.3830 -4.6850 94° East 461 531 40,000  Level FlightAware
01:32AM 49.3760 -4.5550 95° East 459 528 40,000  Level FlightAware
01:33AM 49.3715 -4.4532 95° East 478 550 40,000  Level FlightAware UK
01:33AM 49.3690 -4.4050 95° East 460 529 40,000  Level FlightAware
01:34AM 49.3680 -4.2880 91° East 464 534 40,000  Level FlightAware
01:34AM 49.3700 -4.1580 91° East 471 542 40,000  Level FlightAware
01:34AM 49.3706 -4.1380 91° East 478 550 40,000  Level FlightAware UK
01:35AM 49.3719 -4.0373 91° East 480 552 40,000  Level FlightAware UK
01:35AM 49.3720 -4.0370 91° East 472 543 40,000  Level FlightAware
01:36AM 49.3740 -3.8750 89° East 472 543 40,000  Level FlightAware
01:37AM 49.3760 -3.7280 89° East 474 545 40,000  Level FlightAware
01:37AM 49.3770 -3.5890 89° East 475 547 40,000  Level FlightAware
01:38AM 49.3790 -3.4530 89° East 476 548 40,000  Level FlightAware
01:39AM 49.3800 -3.3040 89° East 478 550 40,000  Level FlightAware
01:39AM 49.3810 -3.1570 89° East 478 550 40,000  Level FlightAware
01:40AM 49.3822 -2.9873 89° East 478 550 40,000  Level FlightAware UK
01:40AM 49.3820 -2.9660 89° East 479 551 40,000  Level FlightAware
01:41AM 49.3830 -2.8240 89° East 481 554 40,000  Level FlightAware
01:42AM 49.3830 -2.6810 90° East 482 555 40,000  Level FlightAware
01:42AM 49.3836 -2.5790 90° East 482 555 40,000  Level FlightAware UK
01:42AM 49.3840 -2.5360 90° East 484 557 40,000  Level FlightAware
01:43AM 49.3838 -2.4347 90° East 480 552 40,000  Level FlightAware UK
01:43AM 49.3840 -2.4020 90° East 484 557 40,000  Level FlightAware
01:43AM 49.3838 -2.3552 90° East 484 557 40,000  Level FlightAware ADS-B
01:44AM 49.3837 -2.2297 90° East 484 557 40,000  Level FlightAware ADS-B
01:44AM 49.3840 -2.1290 90° East 483 556 40,000 -180 Level FlightAware
01:45AM 49.3834 -2.0801 91° East 484 557 39,900 -900 Descending FlightAware ADS-B
01:45AM 49.3831 -1.9642 90° East 483 556 39,300 -1,020 Descending FlightAware ADS-B
01:46AM 49.3820 -1.8320 91° East 475 547 38,700 -960 Descending FlightAware
01:46AM 49.3822 -1.7625 90° East 482 555 38,400 -1,020 Descending FlightAware ADS-B
01:47AM 49.3815 -1.6439 90° East 467 537 37,800 -1,020 Descending FlightAware ADS-B
01:47AM 49.3808 -1.5253 90° East 474 545 37,200 -1,020 Descending FlightAware ADS-B
01:48AM 49.3799 -1.4222 91° East 484 557 36,700 -1,080 Descending FlightAware ADS-B
01:49AM 49.3789 -1.2734 91° East 480 552 35,900 -1,020 Descending FlightAware UK
01:49AM 49.3782 -1.2127 91° East 481 554 35,700 -960 Descending FlightAware ADS-B
01:50AM 49.3765 -1.0590 91° East 470 541 34,900 -1,320 Descending FlightAware ADS-B
01:50AM 49.3749 -0.9233 91° East 467 537 33,800 -1,680 Descending FlightAware ADS-B
01:51AM 49.3736 -0.8169 91° East 458 527 32,800 -1,620 Descending FlightAware UK
01:51AM 49.3730 -0.8040 91° East 452 520 32,800 -1,560 Level FlightAware
01:52AM 49.3710 -0.6700 91° East 449 517 31,600 -1,800 Descending FlightAware
01:52AM 49.3695 -0.5303 91° East 444 511 30,300 -1,620 Descending FlightAware UK
01:52AM 49.3690 -0.5300 91° East 447 514 30,400 -1,560 Climbing FlightAware
01:53AM 49.3670 -0.4090 91° East 441 507 29,300 -1,800 Descending FlightAware
01:54AM 49.3656 -0.3046 91° East 430 495 28,300 -1,680 Descending FlightAware UK
01:54AM 49.3650 -0.2730 91° East 435 501 28,100 -600 Descending FlightAware
01:55AM 49.3511 -0.1068 91° East 428 493 27,700 -480 Descending FlightAware UK
01:55AM 49.3520 -0.1130 91° East 424 488 27,700 -1,860 Level FlightAware
01:55AM 49.3394 0.0187 91° East 428 493 26,400 -360 Descending FlightAware UK
01:56AM 49.3460 -0.0540 91° East 422 486 27,300 -1,320 Climbing FlightAware
01:57AM 49.3212 0.2087 91° East 414 476 25,000 -3,480 Descending FlightAware UK
01:57AM 49.3210 0.2050 91° East 402 463 25,100 -1,680 Climbing FlightAware
01:57AM 49.3119 0.3335 96° East 404 465 23,800 -1,860 Descending FlightAware ADS-B
01:58AM 49.3141 0.4196 88° East 406 467 22,900 -1,620 Descending FlightAware ADS-B
01:58AM 49.3164 0.5061 88° East 396 456 22,200 -1,320 Descending FlightAware ADS-B
01:59AM 49.3187 0.5900 88° East 387 445 21,600 -1,380 Descending FlightAware ADS-B
01:59AM 49.3210 0.6720 88° East 383 441 20,800 -1,680 Descending FlightAware
01:59AM 49.3212 0.6795 88° East 384 442 20,700 -1,800 Descending FlightAware UK
02:00AM 49.3227 0.7603 88° East 382 440 19,900 -1,680 Descending FlightAware UK
02:00AM 49.3189 0.8552 94° East 376 433 18,900 300 Descending FlightAware UK
02:01AM 49.3240 0.8720 94° East 379 436 20,200 -2,460 Climbing FlightAware
02:02AM 49.3147 1.0252 94° East 362 417 16,200 -4,440 Descending FlightAware UK
02:02AM 49.3140 1.0425 94° East 357 411 16,000 -1,680 Descending FlightAware ADS-B
02:02AM 49.3115 1.1305 92° East 342 394 15,000 -1,740 Descending FlightAware ADS-B
02:03AM 49.3095 1.2009 92° East 350 403 14,100 -1,680 Descending FlightAware UK
02:03AM 49.3086 1.2325 92° East 339 390 13,800 -1,500 Descending FlightAware ADS-B
02:03AM 49.3063 1.3087 93° East 340 391 13,000 -1,080 Descending FlightAware ADS-B
02:04AM 49.3042 1.3818 92° East 315 362 12,700 -900 Descending FlightAware ADS-B
02:05AM 49.3022 1.4466 93° East 298 343 12,100 -1,380 Descending FlightAware ADS-B
02:05AM 49.3000 1.5129 93° East 295 339 11,300 -1,440 Descending FlightAware ADS-B
02:06AM 49.2979 1.5785 93° East 293 337 10,600 -1,200 Descending FlightAware ADS-B
02:06AM 49.2959 1.6408 93° East 287 330 10,100 -1,080 Descending FlightAware ADS-B
02:06AM 49.2949 1.6727 93° East 285 328 9,800 -1,140 Descending FlightAware ADS-B
02:07AM 49.2938 1.7037 93° East 285 328 9,500 -1,200 Descending FlightAware ADS-B
02:07AM 49.2933 1.7135 94° East 285 328 9,400 -1,380 Descending FlightAware ADS-B
02:07AM 49.2924 1.7227 99° East 282 325 9,300 -1,380 Descending FlightAware ADS-B
02:07AM 49.2910 1.7314 104° East 280 322 9,200 -1,380 Descending FlightAware ADS-B
02:07AM 49.2890 1.7392 112° Southeast 277 319 9,100 -1,740 Descending FlightAware ADS-B
02:07AM 49.2870 1.7449 118° Southeast 276 318 9,000 -780 Descending FlightAware ADS-B
02:07AM 49.2840 1.7520 123° Southeast 272 313 9,000 -720 Level FlightAware ADS-B
02:07AM 49.2808 1.7580 129° Southeast 270 311 8,900 -1,500 Descending FlightAware ADS-B
02:07AM 49.2768 1.7637 137° Southeast 267 307 8,800 -960 Descending FlightAware ADS-B
02:07AM 49.2679 1.7728 146° Southeast 265 305 8,700 -1,020 Descending FlightAware ADS-B
02:07AM 49.2645 1.7753 154° Southeast 264 304 8,600 -1,200 Descending FlightAware ADS-B
02:08AM 49.2462 1.7880 156° South 265 305 8,300 -960 Descending FlightAware ADS-B
02:08AM 49.2293 1.7997 156° South 259 298 8,100 -1,020 Descending FlightAware ADS-B
02:08AM 49.2127 1.8111 156° South 256 295 7,800 -1,380 Descending FlightAware ADS-B
02:08AM 49.2051 1.8170 153° Southeast 257 296 7,600 -1,320 Descending FlightAware ADS-B
02:08AM 49.1987 1.8228 149° Southeast 257 296 7,500 -1,500 Descending FlightAware ADS-B
02:08AM 49.1937 1.8278 147° Southeast 257 296 7,300 -1,860 Descending FlightAware ADS-B
02:09AM 49.1668 1.8565 145° Southeast 254 292 6,500 -1,680 Descending FlightAware ADS-B
02:09AM 49.1527 1.8711 146° Southeast 243 280 6,100 -2,040 Descending FlightAware ADS-B
02:10AM 49.1301 1.8944 146° Southeast 239 275 5,200 -2,100 Descending FlightAware ADS-B
02:10AM 49.1152 1.9089 147° Southeast 243 280 4,700 -1,740 Descending FlightAware ADS-B
02:10AM 49.0998 1.9232 149° Southeast 247 284 4,300 -1,200 Descending FlightAware ADS-B
02:10AM 49.0800 1.9418 148° Southeast 249 287 4,000 -540 Descending FlightAware ADS-B
02:11AM 49.0648 1.9561 148° Southeast 248 285 4,000  Level FlightAware ADS-B
02:11AM 49.0513 1.9689 148° Southeast 243 280 4,000  Level FlightAware ADS-B
02:11AM 49.0464 1.9749 141° Southeast 241 277 4,000  Level FlightAware ADS-B
02:11AM 49.0430 1.9805 133° Southeast 237 273 4,000  Level FlightAware ADS-B
02:11AM 49.0410 1.9847 126° Southeast 232 267 4,000  Level FlightAware ADS-B
02:11AM 49.0387 1.9906 121° Southeast 228 262 4,000  Level FlightAware ADS-B
02:12AM 49.0312 2.0127 117° Southeast 218 251 4,000  Level FlightAware ADS-B
02:12AM 49.0243 2.0328 118° Southeast 212 244 4,000  Level FlightAware ADS-B
02:12AM 49.0175 2.0528 117° Southeast 214 246 4,000  Level FlightAware ADS-B
02:12AM 49.0105 2.0733 118° Southeast 212 244 4,000  Level FlightAware ADS-B
02:12AM 49.0054 2.0886 117° Southeast 213 245 4,000  Level FlightAware ADS-B
02:13AM 49.0027 2.1001 110° East 214 246 4,000  Level FlightAware ADS-B
02:13AM 49.0022 2.1050 99° East 215 247 4,000  Level FlightAware ADS-B
02:13AM 49.0021 2.1124 91° East 217 250 4,000  Level FlightAware ADS-B
02:13AM 49.0034 2.1356 85° East 220 253 4,000  Level FlightAware ADS-B
02:13AM 49.0047 2.1595 85° East 220 253 4,000  Level FlightAware ADS-B
02:13AM 49.0061 2.1835 85° East 220 253 4,000  Level FlightAware ADS-B
02:14AM 49.0073 2.2074 86° East 214 246 4,000  Level FlightAware ADS-B
02:14AM 49.0085 2.2301 85° East 196 226 4,000 -240 Level FlightAware ADS-B
02:14AM 49.0096 2.2503 85° East 184 212 3,900 -780 Descending FlightAware ADS-B
02:15AM 49.0107 2.2706 85° East 175 201 3,600 -960 Descending FlightAware ADS-B
02:15AM 49.0117 2.2887 85° East 172 198 3,400 -1,020 Descending FlightAware ADS-B
02:15AM 49.0128 2.3084 85° East 168 193 3,100 -1,140 Descending FlightAware ADS-B
02:15AM 49.0139 2.3283 85° East 166 191 2,800 -960 Descending FlightAware ADS-B
02:16AM 49.0149 2.3459 85° East 163 188 2,600 -780 Descending FlightAware ADS-B
02:16AM 49.0165 2.3733 85° East 164 189 2,300 -840 Descending FlightAware ADS-B
02:16AM 49.0177 2.3962 85° East 167 192 2,000 -780 Descending FlightAware ADS-B
02:17AM 49.0194 2.4262 85° East 157 181 1,700 -780 Descending FlightAware ADS-B
02:17AM 49.0205 2.4461 85° East 141 162 1,400 -780 Descending FlightAware ADS-B
02:17AM 49.0215 2.4648 85° East 131 151 1,200 -720 Descending FlightAware ADS-B
02:18AM 49.0222 2.4789 86° East 133 153 1,000 -780 Descending FlightAware ADS-B
02:18AM 49.0236 2.5040 85° East 138 159 700 -720 Descending FlightAware ADS-B
02:18AM 49.0245 2.5207 85° East 135 155 500 -480 Descending FlightAware ADS-B
02:19AM 49.0256 2.5415 85° East 135 155 400 -300 Descending FlightAware ADS-B
02:20AM 49.0240 2.5600 62° Northeast 15 17 -300 Descending FlightAware
02:23AM 49.0200 2.5500 62° Northeast 18 21  Level FlightAware
02:29AM 49.0140 2.5400 62° Northeast 9 10  Level FlightAware
02:29AM 49.0150 2.5400 360° North 10 12  Level FlightAware
02:30AM 49.0160 2.5410 33° Northeast 11 13  Level FlightAware
02:30AM 49.0150 2.5440 117° Southeast 9 10  Level FlightAware
02:31AM 49.0140 2.5440 180° South 5 6  Level FlightAware
02:31AM 49.0140 2.5450 90° East 2 2  Level FlightAware
02:36AM 47.6417 -1.6604 62° Northeast  Level Estimated
02:37AM 47.7065 -1.4762 62° Northeast  Level Estimated
02:41AM 47.6167 -1.7309 62° Northeast  Level Estimated
02:47AM 47.6059 -1.8047 62° Northeast  Level Estimated
02:48AM 47.6705 -1.6204 62° Northeast  Level Estimated
02:51AM 47.6460 -1.6482 62° Northeast  Level Estimated
02:54AM 47.6027 -1.8140 62° Northeast  Level Estimated
02:56AM 47.6287 -1.6972 62° Northeast  Level Estimated
02:57AM 47.6936 -1.5131 62° Northeast  Level Estimated
02:58AM 47.7582 -1.3284 62° Northeast  Level Estimated
02:59AM 47.8225 -1.1433 63° Northeast  Level Estimated
03:00AM 47.8865 -0.9578 63° Northeast  Level Estimated
03:01AM 47.9502 -0.7718 63° Northeast  Level Estimated
03:02AM 48.0136 -0.5853 63° Northeast  Level Estimated
03:03AM 48.0767 -0.3984 63° Northeast  Level Estimated
03:04AM 48.1395 -0.2110 63° Northeast  Level Estimated
03:05AM 48.2020 -0.0232 63° Northeast  Level Estimated
03:06AM 48.2641 0.1652 64° Northeast  Level Estimated
03:07AM 48.3260 0.3539 64° Northeast  Level Estimated